sensor_id;sensor_type;location;lat;lon;timestamp;noise_LAeq;noise_LA_min;noise_LA_max;noise_LA01;noise_LA95
72736;Laerm;60856;53.238;10.448;2022-08-19T00:01:17;34.16;32.52;36.08;;
72736;Laerm;60856;53.238;10.448;2022-08-19T00:03:42;34.04;32.45;39.42;;
72736;Laerm;60856;53.238;10.448;2022-08-19T00:06:07;34.08;32.50;48.25;;
72736;Laerm;60856;53.238;10.448;2022-08-19T00:08:33;34.20;32.47;53.14;;
72736;Laerm;60856;53.238;10.448;2022-08-19T00:10:58;34.27;32.28;51.17;;
72736;Laerm;60856;53.238;10.448;2022-08-19T00:13:24;35.47;32.32;47.53;;
72736;Laerm;60856;53.238;10.448;2022-08-19T00:15:49;34.03;32.39;51.74;;
72736;Laerm;60856;53.238;10.448;2022-08-19T00:18:14;34.16;32.34;51.80;;
72736;Laerm;60856;53.238;10.448;2022-08-19T00:20:39;33.90;32.34;49.82;;
72736;Laerm;60856;53.238;10.448;2022-08-19T00:23:05;33.92;32.31;50.28;;
72736;Laerm;60856;53.238;10.448;2022-08-19T00:25:31;33.69;32.25;50.12;;
72736;Laerm;60856;53.238;10.448;2022-08-19T00:27:56;33.69;31.97;50.18;;
72736;Laerm;60856;53.238;10.448;2022-08-19T00:30:21;33.54;31.95;36.37;;
72736;Laerm;60856;53.238;10.448;2022-08-19T00:32:46;33.64;32.06;35.86;;
72736;Laerm;60856;53.238;10.448;2022-08-19T00:35:12;33.68;32.11;35.41;;
72736;Laerm;60856;53.238;10.448;2022-08-19T00:37:37;33.59;32.04;35.49;;
72736;Laerm;60856;53.238;10.448;2022-08-19T00:40:04;33.87;31.80;53.33;;
72736;Laerm;60856;53.238;10.448;2022-08-19T00:42:29;33.46;31.85;50.24;;
72736;Laerm;60856;53.238;10.448;2022-08-19T00:44:55;33.47;31.91;52.68;;
72736;Laerm;60856;53.238;10.448;2022-08-19T00:47:20;33.36;31.92;50.01;;
72736;Laerm;60856;53.238;10.448;2022-08-19T00:49:53;33.79;31.81;57.26;;
72736;Laerm;60856;53.238;10.448;2022-08-19T00:52:23;33.62;31.73;52.53;;
72736;Laerm;60856;53.238;10.448;2022-08-19T00:54:48;33.78;31.76;54.65;;
72736;Laerm;60856;53.238;10.448;2022-08-19T00:57:15;33.71;31.75;52.24;;
72736;Laerm;60856;53.238;10.448;2022-08-19T00:59:42;33.39;31.28;51.36;;
72736;Laerm;60856;53.238;10.448;2022-08-19T01:02:10;33.64;31.51;52.65;;
72736;Laerm;60856;53.238;10.448;2022-08-19T01:04:36;33.50;31.92;52.45;;
72736;Laerm;60856;53.238;10.448;2022-08-19T01:07:01;33.57;31.66;50.88;;
72736;Laerm;60856;53.238;10.448;2022-08-19T01:09:27;33.42;31.83;46.43;;
72736;Laerm;60856;53.238;10.448;2022-08-19T01:11:52;33.47;31.92;48.15;;
72736;Laerm;60856;53.238;10.448;2022-08-19T01:14:17;33.54;31.67;54.39;;
72736;Laerm;60856;53.238;10.448;2022-08-19T01:16:43;33.41;31.70;52.24;;
72736;Laerm;60856;53.238;10.448;2022-08-19T01:19:18;33.41;31.72;50.23;;
72736;Laerm;60856;53.238;10.448;2022-08-19T01:21:47;33.29;31.59;35.83;;
72736;Laerm;60856;53.238;10.448;2022-08-19T01:24:15;33.30;31.77;34.78;;
72736;Laerm;60856;53.238;10.448;2022-08-19T01:26:43;33.39;31.71;42.12;;
72736;Laerm;60856;53.238;10.448;2022-08-19T01:29:09;33.55;31.91;41.33;;
72736;Laerm;60856;53.238;10.448;2022-08-19T01:31:35;33.40;31.94;34.91;;
72736;Laerm;60856;53.238;10.448;2022-08-19T01:34:01;33.42;31.94;35.19;;
72736;Laerm;60856;53.238;10.448;2022-08-19T01:36:37;33.51;31.95;35.54;;
72736;Laerm;60856;53.238;10.448;2022-08-19T01:39:05;33.51;31.97;37.44;;
72736;Laerm;60856;53.238;10.448;2022-08-19T01:41:31;34.05;31.93;55.30;;
72736;Laerm;60856;53.238;10.448;2022-08-19T01:43:57;33.64;32.02;48.22;;
72736;Laerm;60856;53.238;10.448;2022-08-19T01:46:22;33.73;32.14;50.72;;
72736;Laerm;60856;53.238;10.448;2022-08-19T01:48:47;33.66;31.87;51.44;;
72736;Laerm;60856;53.238;10.448;2022-08-19T01:51:12;33.64;32.14;52.75;;
72736;Laerm;60856;53.238;10.448;2022-08-19T01:53:38;33.47;32.04;35.21;;
72736;Laerm;60856;53.238;10.448;2022-08-19T01:56:04;33.44;31.83;35.97;;
72736;Laerm;60856;53.238;10.448;2022-08-19T01:58:40;33.44;31.90;35.38;;
72736;Laerm;60856;53.238;10.448;2022-08-19T02:01:08;33.42;32.00;35.00;;
72736;Laerm;60856;53.238;10.448;2022-08-19T02:03:33;37.12;31.94;47.97;;
72736;Laerm;60856;53.238;10.448;2022-08-19T02:06:00;33.28;31.66;34.59;;
72736;Laerm;60856;53.238;10.448;2022-08-19T02:08:27;33.38;31.99;37.62;;
72736;Laerm;60856;53.238;10.448;2022-08-19T02:10:52;33.44;31.94;34.75;;
72736;Laerm;60856;53.238;10.448;2022-08-19T02:13:18;33.37;31.90;34.86;;
72736;Laerm;60856;53.238;10.448;2022-08-19T02:15:43;33.18;31.72;34.83;;
72736;Laerm;60856;53.238;10.448;2022-08-19T02:18:09;33.14;31.69;34.57;;
72736;Laerm;60856;53.238;10.448;2022-08-19T02:20:34;33.15;31.69;35.26;;
72736;Laerm;60856;53.238;10.448;2022-08-19T02:23:00;33.13;31.59;34.68;;
72736;Laerm;60856;53.238;10.448;2022-08-19T02:25:26;33.12;31.59;34.62;;
72736;Laerm;60856;53.238;10.448;2022-08-19T02:27:51;33.26;31.70;34.82;;
72736;Laerm;60856;53.238;10.448;2022-08-19T02:30:17;33.41;31.77;34.77;;
72736;Laerm;60856;53.238;10.448;2022-08-19T02:32:42;33.47;31.78;34.88;;
72736;Laerm;60856;53.238;10.448;2022-08-19T02:35:08;33.51;31.93;35.82;;
72736;Laerm;60856;53.238;10.448;2022-08-19T02:37:33;33.56;31.92;35.07;;
72736;Laerm;60856;53.238;10.448;2022-08-19T02:40:17;33.63;32.08;35.05;;
72736;Laerm;60856;53.238;10.448;2022-08-19T02:42:43;33.59;32.03;41.64;;
72736;Laerm;60856;53.238;10.448;2022-08-19T02:45:08;33.55;31.94;34.92;;
72736;Laerm;60856;53.238;10.448;2022-08-19T02:47:34;33.52;32.19;35.14;;
72736;Laerm;60856;53.238;10.448;2022-08-19T02:50:00;33.53;31.75;35.72;;
72736;Laerm;60856;53.238;10.448;2022-08-19T02:52:25;33.52;32.07;35.09;;
72736;Laerm;60856;53.238;10.448;2022-08-19T02:54:52;33.56;32.13;36.92;;
72736;Laerm;60856;53.238;10.448;2022-08-19T02:57:17;33.47;32.00;34.86;;
72736;Laerm;60856;53.238;10.448;2022-08-19T02:59:42;33.39;31.80;34.74;;
72736;Laerm;60856;53.238;10.448;2022-08-19T03:02:08;33.45;31.71;35.18;;
72736;Laerm;60856;53.238;10.448;2022-08-19T03:04:33;36.57;31.62;50.38;;
72736;Laerm;60856;53.238;10.448;2022-08-19T03:06:58;33.59;31.74;36.71;;
72736;Laerm;60856;53.238;10.448;2022-08-19T03:09:24;33.63;32.23;34.98;;
72736;Laerm;60856;53.238;10.448;2022-08-19T03:11:49;33.68;32.15;35.25;;
72736;Laerm;60856;53.238;10.448;2022-08-19T03:14:15;33.68;32.14;35.49;;
72736;Laerm;60856;53.238;10.448;2022-08-19T03:16:43;33.55;32.07;35.16;;
72736;Laerm;60856;53.238;10.448;2022-08-19T03:19:09;33.62;32.14;37.86;;
72736;Laerm;60856;53.238;10.448;2022-08-19T03:21:34;33.57;31.90;40.13;;
72736;Laerm;60856;53.238;10.448;2022-08-19T03:24:01;33.50;31.94;34.89;;
72736;Laerm;60856;53.238;10.448;2022-08-19T03:26:27;33.65;32.02;40.21;;
72736;Laerm;60856;53.238;10.448;2022-08-19T03:28:52;33.58;32.03;35.92;;
72736;Laerm;60856;53.238;10.448;2022-08-19T03:31:19;33.44;31.81;38.05;;
72736;Laerm;60856;53.238;10.448;2022-08-19T03:33:45;33.42;31.82;35.11;;
72736;Laerm;60856;53.238;10.448;2022-08-19T03:36:11;33.62;31.57;36.53;;
72736;Laerm;60856;53.238;10.448;2022-08-19T03:38:46;33.69;32.09;35.52;;
72736;Laerm;60856;53.238;10.448;2022-08-19T03:41:13;33.86;32.31;42.91;;
72736;Laerm;60856;53.238;10.448;2022-08-19T03:43:40;37.89;32.48;52.04;;
72736;Laerm;60856;53.238;10.448;2022-08-19T03:46:08;34.05;32.52;37.55;;
72736;Laerm;60856;53.238;10.448;2022-08-19T03:48:35;37.24;32.25;51.06;;
72736;Laerm;60856;53.238;10.448;2022-08-19T03:51:01;33.84;32.49;36.10;;
72736;Laerm;60856;53.238;10.448;2022-08-19T03:53:27;33.98;32.33;41.00;;
72736;Laerm;60856;53.238;10.448;2022-08-19T03:55:53;34.06;32.23;45.43;;
72736;Laerm;60856;53.238;10.448;2022-08-19T04:01:11;33.72;32.02;37.21;;
72736;Laerm;60856;53.238;10.448;2022-08-19T04:03:38;33.74;32.12;45.96;;
72736;Laerm;60856;53.238;10.448;2022-08-19T04:06:11;33.75;32.14;39.11;;
72736;Laerm;60856;53.238;10.448;2022-08-19T04:08:37;33.70;32.31;35.42;;
72736;Laerm;60856;53.238;10.448;2022-08-19T04:11:06;33.76;32.27;40.46;;
72736;Laerm;60856;53.238;10.448;2022-08-19T04:13:31;36.76;32.09;50.03;;
72736;Laerm;60856;53.238;10.448;2022-08-19T04:15:56;33.86;32.00;37.28;;
72736;Laerm;60856;53.238;10.448;2022-08-19T04:18:22;33.76;32.24;36.81;;
72736;Laerm;60856;53.238;10.448;2022-08-19T04:20:47;33.88;32.11;36.40;;
72736;Laerm;60856;53.238;10.448;2022-08-19T04:23:13;33.61;32.05;36.75;;
72736;Laerm;60856;53.238;10.448;2022-08-19T04:25:40;33.71;32.09;38.35;;
72736;Laerm;60856;53.238;10.448;2022-08-19T04:28:05;34.38;32.08;46.01;;
72736;Laerm;60856;53.238;10.448;2022-08-19T04:30:36;34.02;31.94;49.28;;
72736;Laerm;60856;53.238;10.448;2022-08-19T04:33:01;33.78;32.17;37.63;;
72736;Laerm;60856;53.238;10.448;2022-08-19T04:35:26;33.67;32.08;40.03;;
72736;Laerm;60856;53.238;10.448;2022-08-19T04:37:52;33.62;32.22;37.49;;
72736;Laerm;60856;53.238;10.448;2022-08-19T04:40:17;33.81;31.84;42.65;;
72736;Laerm;60856;53.238;10.448;2022-08-19T04:43:01;34.07;32.24;44.16;;
72736;Laerm;60856;53.238;10.448;2022-08-19T04:45:26;35.13;32.12;44.26;;
72736;Laerm;60856;53.238;10.448;2022-08-19T04:47:53;34.44;31.98;53.43;;
72736;Laerm;60856;53.238;10.448;2022-08-19T04:50:21;34.19;32.34;38.38;;
72736;Laerm;60856;53.238;10.448;2022-08-19T04:52:47;34.33;32.43;40.60;;
72736;Laerm;60856;53.238;10.448;2022-08-19T04:55:14;34.19;32.27;41.21;;
72736;Laerm;60856;53.238;10.448;2022-08-19T04:57:40;34.19;32.00;46.55;;
72736;Laerm;60856;53.238;10.448;2022-08-19T05:00:06;34.65;32.26;44.63;;
72736;Laerm;60856;53.238;10.448;2022-08-19T05:02:31;34.37;31.91;46.76;;
72736;Laerm;60856;53.238;10.448;2022-08-19T05:04:57;36.08;32.42;46.39;;
72736;Laerm;60856;53.238;10.448;2022-08-19T05:07:25;35.01;32.43;47.19;;
72736;Laerm;60856;53.238;10.448;2022-08-19T05:09:50;34.49;32.33;43.11;;
72736;Laerm;60856;53.238;10.448;2022-08-19T05:12:16;34.10;32.29;38.76;;
72736;Laerm;60856;53.238;10.448;2022-08-19T05:14:42;36.36;32.47;44.46;;
72736;Laerm;60856;53.238;10.448;2022-08-19T05:17:07;34.94;32.42;46.21;;
72736;Laerm;60856;53.238;10.448;2022-08-19T05:19:32;35.37;32.34;44.53;;
72736;Laerm;60856;53.238;10.448;2022-08-19T05:22:16;36.92;32.27;53.34;;
72736;Laerm;60856;53.238;10.448;2022-08-19T05:24:59;34.61;32.13;52.69;;
72736;Laerm;60856;53.238;10.448;2022-08-19T05:27:25;35.08;32.41;46.06;;
72736;Laerm;60856;53.238;10.448;2022-08-19T05:29:51;35.96;32.41;46.34;;
72736;Laerm;60856;53.238;10.448;2022-08-19T05:32:16;37.48;32.55;50.51;;
72736;Laerm;60856;53.238;10.448;2022-08-19T05:34:41;34.41;31.95;41.26;;
72736;Laerm;60856;53.238;10.448;2022-08-19T05:37:07;34.48;32.22;45.68;;
72736;Laerm;60856;53.238;10.448;2022-08-19T05:39:33;34.11;31.92;41.97;;
72736;Laerm;60856;53.238;10.448;2022-08-19T05:42:03;35.04;32.34;46.02;;
72736;Laerm;60856;53.238;10.448;2022-08-19T05:44:32;35.59;32.17;45.12;;
72736;Laerm;60856;53.238;10.448;2022-08-19T05:46:58;43.56;32.21;69.54;;
72736;Laerm;60856;53.238;10.448;2022-08-19T05:49:25;35.75;32.33;58.44;;
72736;Laerm;60856;53.238;10.448;2022-08-19T05:51:50;37.23;31.99;52.95;;
72736;Laerm;60856;53.238;10.448;2022-08-19T05:54:16;36.82;32.29;52.03;;
72736;Laerm;60856;53.238;10.448;2022-08-19T05:56:41;34.86;31.99;50.95;;
72736;Laerm;60856;53.238;10.448;2022-08-19T05:59:08;48.61;32.32;58.69;;
72736;Laerm;60856;53.238;10.448;2022-08-19T06:01:37;49.97;32.51;61.88;;
72736;Laerm;60856;53.238;10.448;2022-08-19T06:04:02;44.77;32.32;62.22;;
72736;Laerm;60856;53.238;10.448;2022-08-19T06:06:28;34.11;32.09;39.89;;
72736;Laerm;60856;53.238;10.448;2022-08-19T06:08:53;34.06;32.20;42.90;;
72736;Laerm;60856;53.238;10.448;2022-08-19T06:11:38;34.62;32.31;49.77;;
72736;Laerm;60856;53.238;10.448;2022-08-19T06:14:07;35.85;31.82;48.11;;
72736;Laerm;60856;53.238;10.448;2022-08-19T06:16:35;39.27;32.65;51.73;;
72736;Laerm;60856;53.238;10.448;2022-08-19T06:19:02;34.04;32.26;37.72;;
72736;Laerm;60856;53.238;10.448;2022-08-19T06:21:28;36.87;32.52;51.93;;
72736;Laerm;60856;53.238;10.448;2022-08-19T06:23:54;34.48;32.19;55.69;;
72736;Laerm;60856;53.238;10.448;2022-08-19T06:26:20;38.31;32.43;51.92;;
72736;Laerm;60856;53.238;10.448;2022-08-19T06:28:46;34.83;32.30;43.26;;
72736;Laerm;60856;53.238;10.448;2022-08-19T06:31:22;33.89;32.30;40.04;;
72736;Laerm;60856;53.238;10.448;2022-08-19T06:33:48;34.38;32.17;52.91;;
72736;Laerm;60856;53.238;10.448;2022-08-19T06:36:20;34.05;32.21;45.44;;
72736;Laerm;60856;53.238;10.448;2022-08-19T06:38:46;34.33;32.28;46.78;;
72736;Laerm;60856;53.238;10.448;2022-08-19T06:41:11;36.60;32.46;49.08;;
72736;Laerm;60856;53.238;10.448;2022-08-19T06:43:37;34.24;32.32;49.31;;
72736;Laerm;60856;53.238;10.448;2022-08-19T06:46:02;36.13;32.37;47.25;;
72736;Laerm;60856;53.238;10.448;2022-08-19T06:48:29;34.06;32.34;40.09;;
72736;Laerm;60856;53.238;10.448;2022-08-19T06:50:54;43.78;32.78;66.97;;
72736;Laerm;60856;53.238;10.448;2022-08-19T06:53:19;35.01;32.42;48.44;;
72736;Laerm;60856;53.238;10.448;2022-08-19T06:55:45;34.50;32.37;41.79;;
72736;Laerm;60856;53.238;10.448;2022-08-19T06:58:10;34.96;32.36;45.18;;
72736;Laerm;60856;53.238;10.448;2022-08-19T07:00:35;36.84;32.30;63.77;;
72736;Laerm;60856;53.238;10.448;2022-08-19T07:03:01;37.60;32.55;49.12;;
72736;Laerm;60856;53.238;10.448;2022-08-19T07:05:27;40.62;33.91;55.12;;
72736;Laerm;60856;53.238;10.448;2022-08-19T07:07:52;36.48;33.67;57.24;;
72736;Laerm;60856;53.238;10.448;2022-08-19T07:10:17;36.15;33.45;46.00;;
72736;Laerm;60856;53.238;10.448;2022-08-19T07:12:43;37.68;32.74;54.08;;
72736;Laerm;60856;53.238;10.448;2022-08-19T07:15:09;34.11;32.34;44.72;;
72736;Laerm;60856;53.238;10.448;2022-08-19T07:17:35;40.22;32.21;54.90;;
72736;Laerm;60856;53.238;10.448;2022-08-19T07:20:04;36.87;32.45;50.45;;
72736;Laerm;60856;53.238;10.448;2022-08-19T07:22:29;34.55;32.66;41.66;;
72736;Laerm;60856;53.238;10.448;2022-08-19T07:24:56;34.99;32.49;53.71;;
72736;Laerm;60856;53.238;10.448;2022-08-19T07:27:21;36.28;32.21;52.61;;
72736;Laerm;60856;53.238;10.448;2022-08-19T07:29:46;38.06;32.32;49.95;;
72736;Laerm;60856;53.238;10.448;2022-08-19T07:32:11;37.14;32.95;52.30;;
72736;Laerm;60856;53.238;10.448;2022-08-19T07:34:37;36.29;32.52;55.97;;
72736;Laerm;60856;53.238;10.448;2022-08-19T07:37:05;38.25;32.63;58.27;;
72736;Laerm;60856;53.238;10.448;2022-08-19T07:39:32;41.04;33.14;57.73;;
72736;Laerm;60856;53.238;10.448;2022-08-19T07:41:58;38.33;33.11;55.32;;
72736;Laerm;60856;53.238;10.448;2022-08-19T07:44:24;45.67;32.50;67.70;;
72736;Laerm;60856;53.238;10.448;2022-08-19T07:46:51;37.96;32.87;62.12;;
72736;Laerm;60856;53.238;10.448;2022-08-19T07:49:17;35.66;32.70;55.15;;
72736;Laerm;60856;53.238;10.448;2022-08-19T07:51:54;37.01;32.33;56.49;;
72736;Laerm;60856;53.238;10.448;2022-08-19T07:54:20;38.01;32.73;58.94;;
72736;Laerm;60856;53.238;10.448;2022-08-19T07:56:46;37.64;32.74;56.26;;
72736;Laerm;60856;53.238;10.448;2022-08-19T07:59:11;43.57;32.72;70.28;;
72736;Laerm;60856;53.238;10.448;2022-08-19T08:01:37;43.83;32.72;68.86;;
72736;Laerm;60856;53.238;10.448;2022-08-19T08:04:05;34.98;32.86;49.88;;
72736;Laerm;60856;53.238;10.448;2022-08-19T08:06:49;37.37;32.65;57.90;;
72736;Laerm;60856;53.238;10.448;2022-08-19T08:09:39;37.44;32.16;54.28;;
72736;Laerm;60856;53.238;10.448;2022-08-19T08:14:32;34.67;32.67;43.36;;
72736;Laerm;60856;53.238;10.448;2022-08-19T08:16:58;35.28;32.69;54.40;;
72736;Laerm;60856;53.238;10.448;2022-08-19T08:19:24;39.03;32.92;61.68;;
72736;Laerm;60856;53.238;10.448;2022-08-19T08:21:49;41.97;32.70;65.16;;
72736;Laerm;60856;53.238;10.448;2022-08-19T08:24:15;36.73;32.57;57.82;;
72736;Laerm;60856;53.238;10.448;2022-08-19T08:26:41;35.07;32.63;49.98;;
72736;Laerm;60856;53.238;10.448;2022-08-19T08:29:08;39.84;32.57;50.52;;
72736;Laerm;60856;53.238;10.448;2022-08-19T08:31:35;41.41;32.54;62.51;;
72736;Laerm;60856;53.238;10.448;2022-08-19T08:34:00;42.96;33.87;58.41;;
72736;Laerm;60856;53.238;10.448;2022-08-19T08:36:25;38.73;32.79;54.80;;
72736;Laerm;60856;53.238;10.448;2022-08-19T08:38:52;38.31;33.18;53.19;;
72736;Laerm;60856;53.238;10.448;2022-08-19T08:43:53;38.17;33.12;50.28;;
72736;Laerm;60856;53.238;10.448;2022-08-19T08:46:29;38.79;32.94;62.29;;
72736;Laerm;60856;53.238;10.448;2022-08-19T08:54:15;51.84;33.15;61.63;;
72736;Laerm;60856;53.238;10.448;2022-08-19T08:56:43;37.39;33.20;57.18;;
72736;Laerm;60856;53.238;10.448;2022-08-19T09:01:43;48.97;33.10;63.10;;
72736;Laerm;60856;53.238;10.448;2022-08-19T09:04:08;46.05;33.38;61.04;;
72736;Laerm;60856;53.238;10.448;2022-08-19T09:06:39;36.94;32.99;63.53;;
72736;Laerm;60856;53.238;10.448;2022-08-19T09:09:14;36.69;33.32;61.59;;
72736;Laerm;60856;53.238;10.448;2022-08-19T09:14:10;39.15;33.23;62.83;;
72736;Laerm;60856;53.238;10.448;2022-08-19T09:16:40;40.98;32.90;62.01;;
72736;Laerm;60856;53.238;10.448;2022-08-19T09:19:06;36.50;33.06;57.45;;
72736;Laerm;60856;53.238;10.448;2022-08-19T09:21:32;35.57;33.10;49.78;;
72736;Laerm;60856;53.238;10.448;2022-08-19T09:23:57;51.44;33.17;65.55;;
72736;Laerm;60856;53.238;10.448;2022-08-19T09:26:23;39.90;33.05;55.81;;
72736;Laerm;60856;53.238;10.448;2022-08-19T09:28:49;36.04;32.84;54.82;;
72736;Laerm;60856;53.238;10.448;2022-08-19T09:31:17;35.84;33.24;55.30;;
72736;Laerm;60856;53.238;10.448;2022-08-19T09:33:42;38.63;33.26;57.23;;
72736;Laerm;60856;53.238;10.448;2022-08-19T09:36:09;35.77;32.79;52.90;;
72736;Laerm;60856;53.238;10.448;2022-08-19T09:38:35;37.48;33.26;55.36;;
72736;Laerm;60856;53.238;10.448;2022-08-19T09:41:04;50.54;34.07;63.72;;
72736;Laerm;60856;53.238;10.448;2022-08-19T09:43:31;48.79;33.13;63.44;;
72736;Laerm;60856;53.238;10.448;2022-08-19T09:45:56;37.28;33.35;46.60;;
72736;Laerm;60856;53.238;10.448;2022-08-19T09:48:21;40.48;33.24;51.43;;
72736;Laerm;60856;53.238;10.448;2022-08-19T09:50:46;37.45;32.90;52.99;;
72736;Laerm;60856;53.238;10.448;2022-08-19T09:53:12;35.91;32.67;56.16;;
72736;Laerm;60856;53.238;10.448;2022-08-19T09:55:41;37.23;32.92;54.08;;
72736;Laerm;60856;53.238;10.448;2022-08-19T09:58:06;44.28;32.27;59.36;;
72736;Laerm;60856;53.238;10.448;2022-08-19T10:00:31;39.14;32.62;54.31;;
72736;Laerm;60856;53.238;10.448;2022-08-19T10:02:57;36.46;33.01;55.91;;
72736;Laerm;60856;53.238;10.448;2022-08-19T10:05:22;36.84;32.94;58.30;;
72736;Laerm;60856;53.238;10.448;2022-08-19T10:08:06;46.39;32.92;62.36;;
72736;Laerm;60856;53.238;10.448;2022-08-19T10:10:34;36.15;32.83;57.30;;
72736;Laerm;60856;53.238;10.448;2022-08-19T10:13:00;35.88;32.55;60.79;;
72736;Laerm;60856;53.238;10.448;2022-08-19T10:15:25;35.40;32.61;56.54;;
72736;Laerm;60856;53.238;10.448;2022-08-19T10:17:50;36.53;33.15;63.25;;
72736;Laerm;60856;53.238;10.448;2022-08-19T10:20:15;37.47;32.92;53.68;;
72736;Laerm;60856;53.238;10.448;2022-08-19T10:22:41;35.46;32.08;53.76;;
72736;Laerm;60856;53.238;10.448;2022-08-19T10:25:07;37.77;32.72;52.84;;
72736;Laerm;60856;53.238;10.448;2022-08-19T10:27:32;35.47;32.49;49.53;;
72736;Laerm;60856;53.238;10.448;2022-08-19T10:29:58;44.30;32.51;63.26;;
72736;Laerm;60856;53.238;10.448;2022-08-19T10:32:23;46.13;32.31;64.66;;
72736;Laerm;60856;53.238;10.448;2022-08-19T10:34:50;35.25;32.32;50.18;;
72736;Laerm;60856;53.238;10.448;2022-08-19T10:37:17;36.75;31.90;61.88;;
72736;Laerm;60856;53.238;10.448;2022-08-19T10:39:42;36.40;32.32;61.44;;
72736;Laerm;60856;53.238;10.448;2022-08-19T10:42:11;55.53;32.76;68.66;;
72736;Laerm;60856;53.238;10.448;2022-08-19T10:44:37;52.84;32.85;63.41;;
72736;Laerm;60856;53.238;10.448;2022-08-19T10:47:03;54.67;32.63;66.56;;
72736;Laerm;60856;53.238;10.448;2022-08-19T10:49:31;48.65;32.09;64.15;;
72736;Laerm;60856;53.238;10.448;2022-08-19T10:51:57;52.16;32.53;65.11;;
72736;Laerm;60856;53.238;10.448;2022-08-19T10:54:41;53.35;32.41;65.72;;
72736;Laerm;60856;53.238;10.448;2022-08-19T10:57:25;54.34;32.61;65.20;;
72736;Laerm;60856;53.238;10.448;2022-08-19T10:59:54;50.11;32.48;65.90;;
72736;Laerm;60856;53.238;10.448;2022-08-19T11:02:20;36.84;32.42;51.32;;
72736;Laerm;60856;53.238;10.448;2022-08-19T11:04:45;38.26;32.38;49.23;;
72736;Laerm;60856;53.238;10.448;2022-08-19T11:07:10;39.44;32.58;50.72;;
72736;Laerm;60856;53.238;10.448;2022-08-19T11:09:38;35.07;32.31;56.09;;
72736;Laerm;60856;53.238;10.448;2022-08-19T11:12:04;37.67;32.64;50.79;;
72736;Laerm;60856;53.238;10.448;2022-08-19T11:14:29;36.58;32.49;50.01;;
72736;Laerm;60856;53.238;10.448;2022-08-19T11:16:55;36.26;32.57;59.21;;
72736;Laerm;60856;53.238;10.448;2022-08-19T11:19:22;45.15;32.58;61.02;;
72736;Laerm;60856;53.238;10.448;2022-08-19T11:21:49;51.74;32.14;62.81;;
72736;Laerm;60856;53.238;10.448;2022-08-19T11:24:18;38.54;32.13;51.96;;
72736;Laerm;60856;53.238;10.448;2022-08-19T11:26:45;38.59;32.49;59.90;;
72736;Laerm;60856;53.238;10.448;2022-08-19T11:29:11;37.66;32.18;52.34;;
72736;Laerm;60856;53.238;10.448;2022-08-19T11:31:38;40.41;32.83;58.33;;
72736;Laerm;60856;53.238;10.448;2022-08-19T11:34:05;38.79;32.71;53.34;;
72736;Laerm;60856;53.238;10.448;2022-08-19T11:36:31;48.45;32.17;62.66;;
72736;Laerm;60856;53.238;10.448;2022-08-19T11:38:57;41.58;32.95;58.73;;
72736;Laerm;60856;53.238;10.448;2022-08-19T11:41:23;40.89;32.39;54.94;;
72736;Laerm;60856;53.238;10.448;2022-08-19T11:43:49;38.99;33.09;52.22;;
72736;Laerm;60856;53.238;10.448;2022-08-19T11:46:15;37.78;32.92;58.18;;
72736;Laerm;60856;53.238;10.448;2022-08-19T11:48:40;36.75;32.60;51.87;;
72736;Laerm;60856;53.238;10.448;2022-08-19T11:51:07;38.87;33.11;50.36;;
72736;Laerm;60856;53.238;10.448;2022-08-19T11:53:34;36.47;32.00;44.98;;
72736;Laerm;60856;53.238;10.448;2022-08-19T11:55:59;36.05;32.23;53.77;;
72736;Laerm;60856;53.238;10.448;2022-08-19T11:58:25;52.51;32.77;57.08;;
72736;Laerm;60856;53.238;10.448;2022-08-19T12:00:50;50.27;31.89;55.46;;
72736;Laerm;60856;53.238;10.448;2022-08-19T12:03:16;34.37;31.97;42.68;;
72736;Laerm;60856;53.238;10.448;2022-08-19T12:05:41;33.96;31.43;42.93;;
72736;Laerm;60856;53.238;10.448;2022-08-19T12:08:07;33.42;31.25;40.95;;
72736;Laerm;60856;53.238;10.448;2022-08-19T12:10:33;33.51;31.33;39.22;;
72736;Laerm;60856;53.238;10.448;2022-08-19T12:12:58;34.86;31.77;47.44;;
72736;Laerm;60856;53.238;10.448;2022-08-19T12:15:24;47.88;32.33;63.32;;
72736;Laerm;60856;53.238;10.448;2022-08-19T12:17:49;40.09;31.72;55.01;;
72736;Laerm;60856;53.238;10.448;2022-08-19T12:20:19;38.25;32.04;51.56;;
72736;Laerm;60856;53.238;10.448;2022-08-19T12:22:44;40.62;31.93;50.97;;
72736;Laerm;60856;53.238;10.448;2022-08-19T12:25:10;53.53;31.38;67.61;;
72736;Laerm;60856;53.238;10.448;2022-08-19T12:27:35;52.58;31.40;65.41;;
72736;Laerm;60856;53.238;10.448;2022-08-19T12:30:02;56.83;31.86;68.24;;
72736;Laerm;60856;53.238;10.448;2022-08-19T12:32:27;39.72;32.04;53.16;;
72736;Laerm;60856;53.238;10.448;2022-08-19T12:34:53;48.71;32.27;61.96;;
72736;Laerm;60856;53.238;10.448;2022-08-19T12:37:18;36.19;32.24;57.23;;
72736;Laerm;60856;53.238;10.448;2022-08-19T12:39:44;50.82;32.66;62.97;;
72736;Laerm;60856;53.238;10.448;2022-08-19T12:42:10;53.51;31.93;66.52;;
72736;Laerm;60856;53.238;10.448;2022-08-19T12:44:36;52.40;32.09;64.47;;
72736;Laerm;60856;53.238;10.448;2022-08-19T12:47:02;46.96;32.04;57.67;;
72736;Laerm;60856;53.238;10.448;2022-08-19T12:49:28;33.61;31.42;45.94;;
72736;Laerm;60856;53.238;10.448;2022-08-19T12:51:53;36.26;31.78;45.05;;
72736;Laerm;60856;53.238;10.448;2022-08-19T12:54:19;35.11;31.13;48.43;;
72736;Laerm;60856;53.238;10.448;2022-08-19T12:56:45;34.46;31.78;47.35;;
72736;Laerm;60856;53.238;10.448;2022-08-19T12:59:10;46.27;32.16;61.46;;
72736;Laerm;60856;53.238;10.448;2022-08-19T13:01:36;56.76;32.18;65.24;;
72736;Laerm;60856;53.238;10.448;2022-08-19T13:04:01;34.58;32.21;50.19;;
72736;Laerm;60856;53.238;10.448;2022-08-19T13:06:27;36.72;32.39;47.00;;
72736;Laerm;60856;53.238;10.448;2022-08-19T13:08:52;55.85;32.24;68.06;;
72736;Laerm;60856;53.238;10.448;2022-08-19T13:11:18;52.80;32.20;66.43;;
72736;Laerm;60856;53.238;10.448;2022-08-19T13:13:45;36.25;32.24;47.99;;
72736;Laerm;60856;53.238;10.448;2022-08-19T13:16:11;47.60;32.29;62.90;;
72736;Laerm;60856;53.238;10.448;2022-08-19T13:18:37;52.57;32.01;68.80;;
72736;Laerm;60856;53.238;10.448;2022-08-19T13:21:08;51.60;31.86;63.69;;
72736;Laerm;60856;53.238;10.448;2022-08-19T13:23:34;37.75;31.83;50.51;;
72736;Laerm;60856;53.238;10.448;2022-08-19T13:26:01;39.05;32.44;49.75;;
72736;Laerm;60856;53.238;10.448;2022-08-19T13:28:27;40.77;32.82;50.56;;
72736;Laerm;60856;53.238;10.448;2022-08-19T13:31:14;41.06;31.86;57.10;;
72736;Laerm;60856;53.238;10.448;2022-08-19T13:33:58;39.25;32.54;53.26;;
72736;Laerm;60856;53.238;10.448;2022-08-19T13:36:23;38.97;32.12;50.79;;
72736;Laerm;60856;53.238;10.448;2022-08-19T13:38:48;41.58;32.30;57.36;;
72736;Laerm;60856;53.238;10.448;2022-08-19T13:41:13;56.55;31.62;68.31;;
72736;Laerm;60856;53.238;10.448;2022-08-19T13:43:38;50.08;31.85;63.97;;
72736;Laerm;60856;53.238;10.448;2022-08-19T13:46:07;34.09;31.33;49.27;;
72736;Laerm;60856;53.238;10.448;2022-08-19T13:48:33;37.56;31.65;52.86;;